Lawson Army Air Field (Fort Benning)
KLSF : now visible

Airfield :











YOU CAN JOIN US ON...

 
LOGIN :

Register | Disclaimer

   EN    FR    IT 

 









Legend :    VFR   Marginal VFR   IFR   Intensive IFR   Very Intensive IFR
Visi :
Ceiling :
>= 8 km
>= 3000ft
5 to 8 km
1000 to 3000 ft
1500m to 5 km
500 to 1000 ft
800 to 1500m
200 to 500 ft
< 800m
< 200 ft
Symbols :   Thunderstorms  Fog  Heavy snow  Heavy precipitations  Wind > 20 kt






- Airport Elevation : 232 ft


KLSF - Lawson Army Air Field (Fort Benning)

CURRENT METAR :
  • 161922Z AUTO 01006KT 10SM -RA BKN015 BKN025 OVC036 27/23 A2995 RMK AO2 DZB12E18RAB18 CIG 015V036 SLP145

EXPIRED METARs :
  • 161856Z AUTO 00000KT 10SM FEW020 BKN033 OVC040 26/21 A2997 RMK AO2 DZB39E48DZB48E48 SLP152 P0000 T02640214
  • 161839Z AUTO 00000KT 10SM -DZ BKN017 BKN023 BKN031 OVC040 26/21 A2997 RMK AO2 DZB39 CIG 016 RWY15 SLP152
  • 161821Z AUTO 07005KT 10SM BKN015 OVC028 26/21 A2998 RMK AO2 CIG 015V028 BKN V FEW SLP155
  • 161756Z AUTO 08003KT 10SM SCT016 OVC024 26/21 A2999 RMK AO2 CIG 018V024 SLP159 T02580212 10258 20220 58003
  • 161751Z AUTO 07003KT 10SM SCT016 OVC024 26/21 A2999 RMK AO2 CIG 018V024 CIG 022 RWY15 SLP159
  • 161736Z AUTO 08004KT 10SM BKN018 OVC026 25/21 A2999 RMK AO2 CIG 015V022 SLP159
  • 161731Z AUTO 09004KT 10SM SCT015 OVC022 25/21 A2999 RMK AO2 CIG 015V022 CIG 020 RWY15 SLP159
  • 161721Z AUTO 08003KT 10SM OVC016 25/21 A3000 RMK AO2 CIG 014 RWY15 SLP162
  • 161656Z AUTO 08004KT 10SM OVC014 25/21 A2999 RMK AO2 SLP159 T02500209

TAF TAF KLSF
Valid from the 16 at 13:00 until the 17 at 19:00 UTC


161300Z 1613/1719 VRB06KT 9999 BKN007 BKN030 QNH2996INS
TEMPO 1613/1616 8000 -SHRA SCT007
BECMG 1616/1617 09009KT 9999 SCT010 BKN035 QNH2996INS
BECMG 1703/1704 VRB06KT 4800 BR OVC005 QNH3002INS
TEMPO 1704/1710 1600 BR BKN006
BECMG 1709/1710 VRB06KT 9999 NSW SCT008 BKN015 QNH3006INS
BECMG 1715/1716 10009KT 9999 SCT020 BKN045 QNH3004INS TX26/1619Z TN21/1712Z
KZTL FIR / North America



MET'MAP, your aeronautical weather chart ! - Copyright ORBIFLY December 2007 - Disclaimer

ORBIFLY MET'MAP TEAM :

Programming & Development : Alexandra Zaïnal
Concept & original design : Baudouin d'Aumeries
Assistance for programming : Marc-Olivier Méhu
Technical & hardware support : Manuel Goepfert

Contact : metmap@orbifly.com




SOURCES & CREDITS :

   NOAA       Earth
Advisory